createdAt,value
2022-10-30T00:01:23.254Z,63.16
2022-10-30T00:03:51.796Z,63.26
2022-10-30T00:06:21.088Z,63.80
2022-10-30T00:08:49.312Z,63.62
2022-10-30T00:11:17.739Z,63.63
2022-10-30T00:13:46.219Z,63.66
2022-10-30T00:16:14.520Z,63.78
2022-10-30T00:18:43.503Z,63.94
2022-10-30T00:21:15.661Z,64.05
2022-10-30T00:23:50.876Z,64.01
2022-10-30T00:26:22.454Z,64.23
2022-10-30T00:28:56.015Z,64.13
2022-10-30T00:31:24.755Z,64.05
2022-10-30T00:33:54.732Z,63.77
2022-10-30T00:36:23.697Z,63.73
2022-10-30T00:38:52.120Z,63.68
2022-10-30T00:41:24.245Z,63.58
2022-10-30T00:43:53.081Z,63.38
2022-10-30T00:46:31.181Z,63.38
2022-10-30T00:49:17.036Z,63.44
2022-10-30T00:51:55.479Z,63.39
2022-10-30T00:54:24.202Z,63.32
2022-10-30T00:56:54.487Z,63.30
2022-10-30T00:59:30.431Z,63.41
2022-10-30T01:02:01.391Z,63.44
2022-10-30T01:04:34.171Z,63.32
2022-10-30T01:07:10.533Z,63.40
2022-10-30T01:09:40.861Z,63.33
2022-10-30T01:12:09.666Z,63.30
2022-10-30T01:14:43.626Z,63.58
2022-10-30T01:17:45.780Z,63.62
2022-10-30T01:20:50.679Z,64.26
2022-10-30T01:23:39.508Z,64.30
2022-10-30T01:26:51.824Z,64.17
2022-10-30T01:29:41.421Z,64.25
2022-10-30T01:32:18.173Z,64.06
2022-10-30T01:35:06.149Z,64.16
2022-10-30T01:38:17.812Z,64.19
2022-10-30T01:40:46.148Z,64.17
2022-10-30T01:43:14.463Z,64.06
2022-10-30T01:46:13.990Z,64.10
2022-10-30T01:49:11.432Z,64.18
2022-10-30T01:52:39.920Z,64.18
2022-10-30T01:55:36.256Z,64.12
2022-10-30T01:58:35.045Z,64.24
2022-10-30T02:01:04.895Z,64.14
2022-10-30T02:03:34.127Z,64.08
2022-10-30T02:06:02.639Z,64.03
2022-10-30T02:08:31.032Z,64.17
2022-10-30T02:11:00.083Z,64.37
2022-10-30T02:13:38.644Z,64.32
2022-10-30T02:16:08.204Z,64.10
2022-10-30T02:18:36.592Z,64.34
2022-10-30T02:21:06.832Z,64.41
2022-10-30T02:23:35.444Z,64.58
2022-10-30T02:26:05.089Z,64.47
2022-10-30T02:28:33.623Z,64.38
2022-10-30T02:31:01.898Z,64.36
2022-10-30T02:33:30.367Z,64.46
2022-10-30T02:35:58.862Z,64.27
2022-10-30T02:38:27.535Z,64.39
2022-10-30T02:40:59.036Z,64.45
2022-10-30T02:43:27.683Z,64.99
2022-10-30T02:45:56.551Z,64.67
2022-10-30T02:48:24.952Z,64.77
2022-10-30T02:50:53.415Z,64.77
2022-10-30T02:53:21.708Z,64.83
2022-10-30T02:55:49.881Z,64.93
2022-10-30T02:58:18.646Z,65.32
2022-10-30T03:00:47.505Z,65.14
2022-10-30T03:03:18.673Z,64.89
2022-10-30T03:05:50.244Z,64.62
2022-10-30T03:08:18.622Z,64.61
2022-10-30T03:10:47.015Z,64.60
2022-10-30T03:13:15.261Z,64.85
2022-10-30T03:15:43.578Z,64.89
2022-10-30T03:18:13.867Z,64.84
2022-10-30T03:20:42.909Z,65.11
2022-10-30T03:23:11.313Z,65.08
2022-10-30T03:25:39.843Z,65.19
2022-10-30T03:28:08.291Z,65.23
2022-10-30T03:30:40.885Z,65.00
2022-10-30T03:33:09.795Z,64.99
2022-10-30T03:35:38.165Z,65.00
2022-10-30T03:38:06.544Z,65.01
2022-10-30T03:40:34.969Z,64.83
2022-10-30T03:43:03.407Z,64.99
2022-10-30T03:45:35.624Z,64.79
2022-10-30T03:48:07.115Z,64.73
2022-10-30T03:50:35.605Z,64.84
2022-10-30T03:53:05.112Z,64.74
2022-10-30T03:55:33.582Z,64.81
2022-10-30T03:58:01.956Z,64.83
2022-10-30T04:00:33.299Z,64.83
2022-10-30T04:03:02.780Z,64.88
2022-10-30T04:05:31.402Z,64.84
2022-10-30T04:08:04.188Z,64.78
2022-10-30T04:10:36.093Z,64.99
2022-10-30T04:13:08.611Z,65.28
2022-10-30T04:15:38.012Z,65.23
2022-10-30T04:18:06.852Z,65.38
2022-10-30T04:20:36.422Z,65.25
2022-10-30T04:23:10.983Z,65.39
2022-10-30T04:25:39.528Z,65.43
2022-10-30T04:28:09.020Z,65.70
2022-10-30T04:30:38.761Z,65.68
2022-10-30T04:33:12.022Z,65.59
2022-10-30T04:35:41.674Z,66.00
2022-10-30T04:38:16.533Z,65.87
2022-10-30T04:40:45.660Z,66.22
2022-10-30T04:43:15.086Z,66.51
2022-10-30T04:45:44.174Z,66.61
2022-10-30T04:48:18.708Z,67.00
2022-10-30T04:50:48.605Z,67.23
2022-10-30T04:53:24.458Z,67.27
2022-10-30T04:55:57.205Z,67.06
2022-10-30T04:58:25.721Z,66.76
2022-10-30T05:01:03.616Z,66.32
2022-10-30T05:03:33.128Z,66.09
2022-10-30T05:06:06.420Z,65.77
2022-10-30T05:08:34.779Z,65.72
2022-10-30T05:11:09.307Z,65.75
2022-10-30T05:13:37.684Z,65.94
2022-10-30T05:16:07.614Z,66.09
2022-10-30T05:18:35.891Z,66.03
2022-10-30T05:21:04.256Z,66.08
2022-10-30T05:23:32.624Z,66.01
2022-10-30T05:26:01.742Z,66.21
2022-10-30T05:28:31.042Z,66.26
2022-10-30T05:30:59.931Z,66.54
2022-10-30T05:33:47.061Z,66.80
2022-10-30T05:36:15.531Z,67.16
2022-10-30T05:38:44.008Z,67.13
2022-10-30T05:41:18.945Z,67.13
2022-10-30T05:43:47.196Z,67.64
2022-10-30T05:46:15.597Z,67.27
2022-10-30T05:48:44.181Z,66.75
2022-10-30T05:51:12.855Z,66.47
2022-10-30T05:53:49.622Z,66.14
2022-10-30T05:56:18.108Z,65.91
2022-10-30T05:58:50.444Z,65.90
2022-10-30T06:01:19.654Z,65.97
2022-10-30T06:03:50.118Z,66.06
2022-10-30T06:06:18.599Z,66.31
2022-10-30T06:08:47.065Z,66.69
2022-10-30T06:12:08.911Z,67.19
2022-10-30T06:14:55.803Z,67.43
2022-10-30T06:17:24.299Z,67.08
2022-10-30T06:20:18.370Z,67.63
2022-10-30T06:23:08.585Z,67.56
2022-10-30T06:26:26.824Z,67.44
2022-10-30T06:28:58.827Z,67.53
2022-10-30T06:31:28.089Z,67.34
2022-10-30T06:33:56.464Z,67.65
2022-10-30T06:36:25.032Z,67.26
2022-10-30T06:38:55.524Z,66.99
2022-10-30T06:41:30.307Z,66.90
2022-10-30T06:44:12.403Z,66.68
2022-10-30T06:46:41.706Z,66.57
2022-10-30T06:49:10.160Z,66.43
2022-10-30T06:51:40.723Z,66.46
2022-10-30T06:54:09.132Z,66.55
2022-10-30T06:56:40.320Z,66.48
2022-10-30T06:59:55.245Z,66.22
2022-10-30T07:03:01.781Z,66.24
2022-10-30T07:05:31.207Z,66.35
2022-10-30T07:07:59.557Z,66.72
2022-10-30T07:10:28.045Z,66.85
2022-10-30T07:13:26.320Z,66.96
2022-10-30T07:15:59.779Z,67.25
2022-10-30T07:18:34.134Z,67.19
2022-10-30T07:21:03.622Z,67.20
2022-10-30T07:23:32.938Z,67.13
2022-10-30T07:26:19.836Z,67.39
2022-10-30T07:28:48.747Z,67.23
2022-10-30T07:31:42.308Z,67.23
2022-10-30T07:34:45.588Z,67.12
2022-10-30T07:37:22.676Z,67.06
2022-10-30T07:40:00.071Z,67.01
2022-10-30T07:42:47.429Z,66.97
2022-10-30T07:45:41.751Z,66.82
2022-10-30T07:48:50.481Z,66.75
2022-10-30T07:51:59.472Z,66.97
2022-10-30T07:54:28.026Z,66.96
2022-10-30T07:56:57.683Z,66.86
2022-10-30T07:59:44.240Z,66.58
2022-10-30T08:02:15.488Z,66.34
2022-10-30T08:05:02.887Z,65.81
2022-10-30T08:07:55.378Z,65.77
2022-10-30T08:10:24.548Z,65.73
2022-10-30T08:12:53.407Z,65.28
2022-10-30T08:15:24.052Z,65.30
2022-10-30T08:17:53.020Z,65.31
2022-10-30T08:20:23.774Z,65.56
2022-10-30T08:22:58.289Z,65.59
2022-10-30T08:25:31.060Z,65.47
2022-10-30T08:28:07.999Z,65.08
2022-10-30T08:30:39.290Z,64.64
2022-10-30T08:33:13.911Z,64.31
2022-10-30T08:36:01.643Z,64.46
2022-10-30T08:38:30.062Z,64.52
2022-10-30T08:41:24.457Z,64.56
2022-10-30T08:43:53.543Z,64.68
2022-10-30T08:46:22.334Z,64.85
2022-10-30T08:48:50.646Z,64.85
2022-10-30T08:51:19.664Z,64.70
2022-10-30T08:53:50.114Z,64.33
2022-10-30T08:56:19.004Z,64.41
2022-10-30T08:58:59.373Z,63.67
2022-10-30T09:01:27.820Z,63.58
2022-10-30T09:04:14.711Z,63.45
2022-10-30T09:07:21.024Z,63.45
2022-10-30T09:09:51.977Z,63.18
2022-10-30T09:12:20.331Z,63.08
2022-10-30T09:14:48.817Z,62.78
2022-10-30T09:17:17.159Z,62.92
2022-10-30T09:19:49.479Z,62.72
2022-10-30T09:22:22.659Z,62.51
2022-10-30T09:24:51.338Z,62.35
2022-10-30T09:27:47.808Z,62.58
2022-10-30T09:30:16.871Z,62.45
2022-10-30T09:33:02.960Z,62.28
2022-10-30T09:36:21.292Z,62.29
2022-10-30T09:38:51.131Z,62.34
2022-10-30T09:41:55.361Z,61.89
2022-10-30T09:44:35.946Z,61.07
2022-10-30T09:47:25.405Z,60.94
2022-10-30T09:50:41.384Z,60.72
2022-10-30T09:53:39.236Z,60.69
2022-10-30T09:56:26.478Z,60.67
2022-10-30T09:59:32.841Z,60.64
2022-10-30T10:02:49.507Z,60.48
2022-10-30T10:05:25.913Z,60.89
2022-10-30T10:09:15.604Z,60.64
2022-10-30T10:12:49.908Z,59.96
2022-10-30T10:15:47.620Z,59.78
2022-10-30T10:18:26.762Z,60.15
2022-10-30T10:21:02.219Z,60.16
2022-10-30T10:23:41.671Z,60.04
2022-10-30T10:26:23.813Z,59.61
2022-10-30T10:29:27.829Z,59.03
2022-10-30T10:32:27.955Z,58.40
2022-10-30T10:35:47.845Z,58.20
2022-10-30T10:38:43.027Z,57.88
2022-10-30T10:41:56.076Z,57.77
2022-10-30T10:45:18.008Z,58.42
2022-10-30T10:48:40.241Z,59.09
2022-10-30T10:51:12.876Z,59.49
2022-10-30T10:53:54.597Z,59.53
2022-10-30T10:56:47.529Z,58.94
2022-10-30T10:59:33.931Z,59.00
2022-10-30T11:02:33.085Z,58.88
2022-10-30T11:05:21.220Z,58.55
2022-10-30T11:07:50.985Z,58.99
2022-10-30T11:10:21.380Z,59.29
2022-10-30T11:12:49.790Z,59.56
2022-10-30T11:15:38.469Z,59.89
2022-10-30T11:18:11.140Z,59.90
2022-10-30T11:21:08.637Z,59.86
2022-10-30T11:23:45.896Z,60.13
2022-10-30T11:26:26.261Z,60.05
2022-10-30T11:29:14.657Z,60.12
2022-10-30T11:31:45.335Z,59.95
2022-10-30T11:34:20.475Z,60.01
2022-10-30T11:36:52.028Z,60.09
2022-10-30T11:39:27.943Z,59.86
2022-10-30T11:41:59.072Z,59.12
2022-10-30T11:44:50.914Z,58.89
2022-10-30T11:47:26.640Z,58.26
2022-10-30T11:50:01.548Z,58.64
2022-10-30T11:52:30.820Z,58.48
2022-10-30T11:55:02.996Z,58.70
2022-10-30T11:57:37.981Z,58.78
2022-10-30T12:00:19.636Z,58.90
2022-10-30T12:02:51.913Z,58.89
2022-10-30T12:05:26.372Z,59.03
2022-10-30T12:08:09.760Z,59.32
2022-10-30T12:10:52.986Z,59.43
2022-10-30T12:13:23.890Z,60.39
2022-10-30T12:16:19.031Z,60.89
2022-10-30T12:19:01.475Z,61.53
2022-10-30T12:21:38.196Z,61.55
2022-10-30T12:24:18.348Z,61.43
2022-10-30T12:26:53.275Z,61.61
2022-10-30T12:29:41.711Z,61.45
2022-10-30T12:32:21.921Z,61.35
2022-10-30T12:35:03.103Z,61.25
2022-10-30T12:37:41.794Z,61.02
2022-10-30T12:40:30.979Z,61.00
2022-10-30T12:43:08.273Z,60.64
2022-10-30T12:45:43.499Z,60.60
2022-10-30T12:48:42.016Z,60.67
2022-10-30T12:51:32.283Z,60.40
2022-10-30T12:54:25.020Z,60.23
2022-10-30T12:57:37.392Z,60.17
2022-10-30T13:00:15.812Z,60.35
2022-10-30T13:02:56.699Z,60.29
2022-10-30T13:05:26.173Z,60.31
2022-10-30T13:08:33.067Z,60.10
2022-10-30T13:11:11.951Z,60.05
2022-10-30T13:13:47.152Z,60.23
2022-10-30T13:16:30.020Z,60.59
2022-10-30T13:19:01.573Z,60.34
2022-10-30T13:24:48.755Z,60.23
2022-10-30T13:27:41.252Z,60.37
2022-10-30T13:30:15.593Z,60.44
2022-10-30T13:33:18.131Z,60.66
2022-10-30T13:36:08.869Z,60.77
2022-10-30T13:38:45.986Z,61.17
2022-10-30T13:41:45.705Z,61.39
2022-10-30T13:44:39.716Z,61.25
2022-10-30T13:47:41.857Z,61.34
2022-10-30T13:50:40.420Z,61.22
2022-10-30T13:53:27.959Z,61.05
2022-10-30T13:55:57.047Z,61.00
2022-10-30T13:59:22.467Z,60.95
2022-10-30T14:02:23.125Z,61.29
2022-10-30T14:05:23.958Z,61.38
2022-10-30T14:08:09.080Z,61.87
2022-10-30T14:10:57.545Z,62.05
2022-10-30T14:13:54.917Z,62.10
2022-10-30T14:16:44.921Z,62.17
2022-10-30T14:19:14.886Z,62.37
2022-10-30T14:21:54.875Z,62.27
2022-10-30T14:24:33.363Z,62.77
2022-10-30T14:27:04.669Z,63.16
2022-10-30T14:29:36.035Z,63.15
2022-10-30T14:32:16.276Z,63.24
2022-10-30T14:34:50.905Z,63.35
2022-10-30T14:37:39.089Z,63.56
2022-10-30T14:40:39.496Z,63.62
2022-10-30T14:43:40.580Z,64.03
2022-10-30T14:46:35.067Z,64.21
2022-10-30T14:49:34.795Z,64.28
2022-10-30T14:52:37.020Z,65.62
2022-10-30T14:55:29.927Z,65.87
2022-10-30T14:58:03.970Z,66.05
2022-10-30T15:00:41.173Z,66.62
2022-10-30T15:03:18.475Z,66.46
2022-10-30T15:06:13.527Z,66.95
2022-10-30T15:09:14.447Z,67.18
2022-10-30T15:12:07.490Z,66.72
2022-10-30T15:14:53.866Z,66.97
2022-10-30T15:17:28.539Z,67.05
2022-10-30T15:20:01.657Z,67.10
2022-10-30T15:22:31.887Z,67.20
2022-10-30T15:25:02.261Z,67.05
2022-10-30T15:27:33.173Z,66.93
2022-10-30T15:30:04.459Z,66.95
2022-10-30T15:32:32.939Z,66.91
2022-10-30T15:35:04.986Z,67.09
2022-10-30T15:37:33.259Z,66.85
2022-10-30T15:40:21.232Z,66.83
2022-10-30T15:42:51.315Z,66.77
2022-10-30T15:45:28.200Z,66.71
2022-10-30T15:48:11.542Z,66.95
2022-10-30T15:50:45.796Z,66.91
2022-10-30T15:53:24.696Z,66.82
2022-10-30T15:55:52.865Z,66.47
2022-10-30T15:58:23.092Z,66.31
2022-10-30T16:01:00.832Z,66.45
2022-10-30T16:03:30.065Z,66.33
2022-10-30T16:06:17.980Z,66.44
2022-10-30T16:08:48.178Z,66.63
2022-10-30T16:11:16.565Z,66.91
2022-10-30T16:13:44.936Z,66.80
2022-10-30T16:16:26.512Z,66.62
2022-10-30T16:19:01.607Z,66.56
2022-10-30T16:21:31.322Z,66.51
2022-10-30T16:24:02.790Z,66.48
2022-10-30T16:26:35.353Z,66.50
2022-10-30T16:29:18.667Z,66.55
2022-10-30T16:31:50.308Z,66.57
2022-10-30T16:34:36.745Z,66.45
2022-10-30T16:37:10.723Z,66.76
2022-10-30T16:39:39.803Z,67.00
2022-10-30T16:42:26.221Z,67.84
2022-10-30T16:45:24.826Z,68.64
2022-10-30T16:48:08.408Z,68.44
2022-10-30T16:50:38.756Z,69.59
2022-10-30T16:53:21.033Z,71.30
2022-10-30T16:55:50.085Z,72.09
2022-10-30T16:58:19.877Z,73.24
2022-10-30T17:00:55.055Z,74.06
2022-10-30T17:03:28.532Z,75.38
2022-10-30T17:06:07.252Z,76.84
2022-10-30T17:08:43.527Z,77.75
2022-10-30T17:11:21.075Z,78.96
2022-10-30T17:13:52.392Z,79.82
2022-10-30T17:16:32.280Z,79.73
2022-10-30T17:19:39.361Z,79.68
2022-10-30T17:22:13.999Z,80.27
2022-10-30T17:24:42.702Z,80.56
2022-10-30T17:27:48.244Z,80.71
2022-10-30T17:30:38.122Z,81.57
2022-10-30T17:33:37.353Z,82.16
2022-10-30T17:36:06.948Z,82.50
2022-10-30T17:38:35.212Z,82.74
2022-10-30T17:41:04.041Z,83.05
2022-10-30T17:43:46.875Z,83.34
2022-10-30T17:46:20.049Z,82.92
2022-10-30T17:48:50.031Z,83.23
2022-10-30T17:51:19.286Z,82.95
2022-10-30T17:53:48.620Z,83.17
2022-10-30T17:56:33.386Z,83.29
2022-10-30T17:59:01.755Z,83.13
2022-10-30T18:01:30.254Z,82.74
2022-10-30T18:03:58.820Z,82.70
2022-10-30T18:06:28.987Z,82.42
2022-10-30T18:08:57.131Z,82.91
2022-10-30T18:11:27.297Z,82.88
2022-10-30T18:13:57.217Z,83.61
2022-10-30T18:16:25.499Z,82.93
2022-10-30T18:18:54.500Z,82.83
2022-10-30T18:21:24.628Z,82.45
2022-10-30T18:23:54.097Z,82.62
2022-10-30T18:26:27.054Z,82.00
2022-10-30T18:28:55.432Z,81.95
2022-10-30T18:31:24.949Z,82.33
2022-10-30T18:33:53.197Z,82.40
2022-10-30T18:36:24.541Z,82.03
2022-10-30T18:38:53.180Z,81.26
2022-10-30T18:41:43.517Z,81.07
2022-10-30T18:44:19.868Z,80.22
2022-10-30T18:46:48.195Z,80.37
2022-10-30T18:49:16.623Z,80.39
2022-10-30T18:51:44.869Z,80.20
2022-10-30T18:54:16.860Z,80.01
2022-10-30T18:56:45.274Z,79.50
2022-10-30T18:59:13.524Z,79.70
2022-10-30T19:01:41.958Z,79.81
2022-10-30T19:04:11.108Z,79.32
2022-10-30T19:06:39.380Z,78.92
2022-10-30T19:09:07.728Z,78.88
2022-10-30T19:11:38.239Z,78.00
2022-10-30T19:14:15.538Z,78.08
2022-10-30T19:16:43.883Z,77.38
2022-10-30T19:19:15.125Z,76.60
2022-10-30T19:21:43.787Z,76.53
2022-10-30T19:24:15.164Z,76.30
2022-10-30T19:26:43.530Z,76.56
2022-10-30T19:29:11.748Z,75.87
2022-10-30T19:31:39.976Z,75.57
2022-10-30T19:34:08.655Z,74.87
2022-10-30T19:36:37.688Z,75.32
2022-10-30T19:39:17.036Z,75.21
2022-10-30T19:41:46.402Z,74.84
2022-10-30T19:44:14.802Z,74.85
2022-10-30T19:46:43.084Z,74.90
2022-10-30T19:49:20.484Z,74.62
2022-10-30T19:51:48.840Z,75.18
2022-10-30T19:54:17.055Z,74.97
2022-10-30T19:56:45.359Z,74.84
2022-10-30T19:59:15.274Z,75.03
2022-10-30T20:01:44.988Z,75.35
2022-10-30T20:04:13.862Z,74.92
2022-10-30T20:06:42.247Z,75.15
2022-10-30T20:09:12.716Z,75.15
2022-10-30T20:11:40.960Z,75.55
2022-10-30T20:14:09.330Z,75.71
2022-10-30T20:16:37.584Z,75.87
2022-10-30T20:19:31.057Z,75.90
2022-10-30T20:21:59.275Z,75.82
2022-10-30T20:24:27.808Z,75.72
2022-10-30T20:26:57.491Z,75.72
2022-10-30T20:29:25.878Z,76.04
2022-10-30T20:31:54.191Z,75.94
2022-10-30T20:34:22.441Z,76.09
2022-10-30T20:36:50.696Z,76.12
2022-10-30T20:39:18.965Z,75.92
2022-10-30T20:41:47.595Z,76.25
2022-10-30T20:44:16.024Z,76.07
2022-10-30T20:46:44.363Z,75.97
2022-10-30T20:49:17.494Z,75.71
2022-10-30T20:51:48.297Z,76.21
2022-10-30T20:54:17.265Z,76.17
2022-10-30T20:56:45.496Z,76.67
2022-10-30T20:59:13.965Z,77.11
2022-10-30T21:01:42.417Z,77.05
2022-10-30T21:04:11.006Z,77.24
2022-10-30T21:06:39.312Z,76.99
2022-10-30T21:09:07.741Z,76.90
2022-10-30T21:11:35.988Z,76.73
2022-10-30T21:14:04.305Z,76.85
2022-10-30T21:16:32.677Z,76.94
2022-10-30T21:19:00.947Z,77.18
2022-10-30T21:21:29.301Z,77.69
2022-10-30T21:23:57.643Z,77.59
2022-10-30T21:26:25.956Z,77.75
2022-10-30T21:28:54.357Z,77.75
2022-10-30T21:31:22.866Z,77.84
2022-10-30T21:33:51.211Z,78.27
2022-10-30T21:36:21.040Z,78.50
2022-10-30T21:38:49.628Z,78.75
2022-10-30T21:41:21.467Z,79.00
2022-10-30T21:43:53.040Z,79.10
2022-10-30T21:46:23.723Z,79.24
2022-10-30T21:48:52.398Z,79.24
2022-10-30T21:51:26.628Z,79.68
2022-10-30T21:53:56.283Z,80.04
2022-10-30T21:56:27.785Z,79.83
2022-10-30T21:58:59.444Z,80.14
2022-10-30T22:01:33.832Z,79.95
2022-10-30T22:04:05.156Z,79.84
2022-10-30T22:06:33.607Z,79.93
2022-10-30T22:09:01.916Z,79.73
2022-10-30T22:11:30.267Z,79.72
2022-10-30T22:14:01.414Z,79.74
2022-10-30T22:16:33.140Z,80.30
2022-10-30T22:19:01.994Z,80.67
2022-10-30T22:21:31.047Z,80.44
2022-10-30T22:24:01.380Z,80.62
2022-10-30T22:26:30.619Z,80.92
2022-10-30T22:29:00.571Z,80.90
2022-10-30T22:31:30.706Z,80.58
2022-10-30T22:34:00.855Z,80.98
2022-10-30T22:36:32.151Z,80.91
2022-10-30T22:39:10.988Z,80.83
2022-10-30T22:41:40.080Z,80.90
2022-10-30T22:44:13.187Z,81.07
2022-10-30T22:46:41.806Z,81.31
2022-10-30T22:49:10.154Z,81.56
2022-10-30T22:51:40.049Z,81.87
2022-10-30T22:54:14.669Z,81.94
2022-10-30T22:56:43.128Z,81.84
2022-10-30T22:59:13.614Z,81.85
2022-10-30T23:01:43.039Z,81.46
2022-10-30T23:04:13.126Z,82.08
2022-10-30T23:06:41.852Z,82.10
2022-10-30T23:09:19.612Z,82.38
2022-10-30T23:11:48.874Z,82.80
2022-10-30T23:14:17.174Z,82.28
2022-10-30T23:16:45.413Z,82.76
2022-10-30T23:19:13.837Z,82.81
2022-10-30T23:21:42.239Z,83.15
2022-10-30T23:24:10.653Z,83.44
2022-10-30T23:26:38.972Z,83.71
2022-10-30T23:29:07.348Z,83.78
2022-10-30T23:31:39.517Z,84.07
2022-10-30T23:34:12.379Z,84.40
2022-10-30T23:36:41.753Z,84.44
2022-10-30T23:39:15.739Z,83.97
2022-10-30T23:41:44.901Z,84.16
2022-10-30T23:44:16.452Z,84.12
2022-10-30T23:46:44.982Z,84.66
2022-10-30T23:49:13.419Z,84.35
2022-10-30T23:51:41.700Z,84.26
2022-10-30T23:54:10.155Z,83.81
2022-10-30T23:56:38.472Z,83.76
2022-10-30T23:59:06.848Z,84.16
